Terminal Aerodrome Forecast
Issued by NWS Atlanta, GA

Home | Current Version | Previous Version | Text Only | Print | Product List | Glossary On
Versions: 1 2 3 4 5 6 7 8 9 10 11 12 13 14 15 16 17 18 19 20 21 22 23 24 25 26 27
000
FTUS42 KFFC 012326
TAFAHN
TAF
KAHN 012326Z 0200/0224 17006KT 6SM -RA BR SCT035 BKN050
      TEMPO 0200/0203 4SM RA BR SCT015 OVC035
     FM020300 18009KT 3SM -RA BR SCT007 OVC015
     FM020600 22010KT 2SM -RA OVC007
     FM021200 27010G20KT 5SM -RA OVC012
     FM021500 28012G22KT P6SM BKN025
     FM021700 29014G24KT P6SM BKN040
     FM021900 30015G25KT P6SM SCT050=

USA.gov is the U.S. government's official web portal to all federal, state and local government web resources and services.